sensor_id;sensor_type;location;lat;lon;timestamp;P1;durP1;ratioP1;P2;durP2;ratioP2
84163;SDS011;74288;46.872;7.802;2024-02-26T00:01:39;3.75;;;1.25;;
84163;SDS011;74288;46.872;7.802;2024-02-26T00:04:05;3.40;;;1.30;;
84163;SDS011;74288;46.872;7.802;2024-02-26T00:06:31;3.47;;;1.20;;
84163;SDS011;74288;46.872;7.802;2024-02-26T00:08:57;5.10;;;1.45;;
84163;SDS011;74288;46.872;7.802;2024-02-26T00:11:23;4.90;;;1.60;;
84163;SDS011;74288;46.872;7.802;2024-02-26T00:13:49;3.17;;;1.40;;
84163;SDS011;74288;46.872;7.802;2024-02-26T00:16:15;3.53;;;1.30;;
84163;SDS011;74288;46.872;7.802;2024-02-26T00:18:41;5.22;;;1.33;;
84163;SDS011;74288;46.872;7.802;2024-02-26T00:21:07;3.67;;;1.20;;
84163;SDS011;74288;46.872;7.802;2024-02-26T00:23:33;3.20;;;1.10;;
84163;SDS011;74288;46.872;7.802;2024-02-26T00:25:59;2.85;;;1.00;;
84163;SDS011;74288;46.872;7.802;2024-02-26T00:28:25;3.92;;;1.30;;
84163;SDS011;74288;46.872;7.802;2024-02-26T00:30:52;2.35;;;0.90;;
84163;SDS011;74288;46.872;7.802;2024-02-26T00:33:20;3.30;;;1.33;;
84163;SDS011;74288;46.872;7.802;2024-02-26T00:35:46;3.60;;;1.45;;
84163;SDS011;74288;46.872;7.802;2024-02-26T00:38:12;3.15;;;1.20;;
84163;SDS011;74288;46.872;7.802;2024-02-26T00:40:38;5.25;;;1.27;;
84163;SDS011;74288;46.872;7.802;2024-02-26T00:43:05;3.83;;;1.30;;
84163;SDS011;74288;46.872;7.802;2024-02-26T00:45:31;3.00;;;1.10;;
84163;SDS011;74288;46.872;7.802;2024-02-26T00:47:58;3.35;;;1.40;;
84163;SDS011;74288;46.872;7.802;2024-02-26T00:50:26;3.53;;;1.13;;
84163;SDS011;74288;46.872;7.802;2024-02-26T00:52:52;4.00;;;1.30;;
84163;SDS011;74288;46.872;7.802;2024-02-26T00:55:18;4.45;;;1.42;;
84163;SDS011;74288;46.872;7.802;2024-02-26T00:57:44;3.50;;;1.30;;
84163;SDS011;74288;46.872;7.802;2024-02-26T01:00:10;3.78;;;1.40;;
84163;SDS011;74288;46.872;7.802;2024-02-26T01:02:36;3.10;;;1.10;;
84163;SDS011;74288;46.872;7.802;2024-02-26T01:05:03;4.60;;;1.20;;
84163;SDS011;74288;46.872;7.802;2024-02-26T01:07:31;3.85;;;1.48;;
84163;SDS011;74288;46.872;7.802;2024-02-26T01:10:00;2.90;;;1.10;;
84163;SDS011;74288;46.872;7.802;2024-02-26T01:12:27;3.63;;;1.10;;
84163;SDS011;74288;46.872;7.802;2024-02-26T01:14:53;5.47;;;1.10;;
84163;SDS011;74288;46.872;7.802;2024-02-26T01:17:19;3.17;;;1.20;;
84163;SDS011;74288;46.872;7.802;2024-02-26T01:19:44;3.40;;;1.40;;
84163;SDS011;74288;46.872;7.802;2024-02-26T01:22:10;4.75;;;1.70;;
84163;SDS011;74288;46.872;7.802;2024-02-26T01:24:36;3.30;;;1.33;;
84163;SDS011;74288;46.872;7.802;2024-02-26T01:27:02;2.90;;;1.30;;
84163;SDS011;74288;46.872;7.802;2024-02-26T01:29:28;3.88;;;1.50;;
84163;SDS011;74288;46.872;7.802;2024-02-26T01:31:54;3.72;;;1.48;;
84163;SDS011;74288;46.872;7.802;2024-02-26T01:34:20;4.55;;;1.67;;
84163;SDS011;74288;46.872;7.802;2024-02-26T01:36:46;3.35;;;1.30;;
84163;SDS011;74288;46.872;7.802;2024-02-26T01:39:12;3.67;;;1.40;;
84163;SDS011;74288;46.872;7.802;2024-02-26T01:41:39;3.90;;;1.20;;
84163;SDS011;74288;46.872;7.802;2024-02-26T01:44:06;4.30;;;1.37;;
84163;SDS011;74288;46.872;7.802;2024-02-26T01:46:33;4.70;;;1.35;;
84163;SDS011;74288;46.872;7.802;2024-02-26T01:48:59;3.78;;;1.48;;
84163;SDS011;74288;46.872;7.802;2024-02-26T01:51:27;4.45;;;1.52;;
84163;SDS011;74288;46.872;7.802;2024-02-26T01:53:53;3.72;;;1.40;;
84163;SDS011;74288;46.872;7.802;2024-02-26T01:56:19;5.60;;;1.63;;
84163;SDS011;74288;46.872;7.802;2024-02-26T01:58:45;4.53;;;1.40;;
84163;SDS011;74288;46.872;7.802;2024-02-26T02:01:12;4.22;;;1.25;;
84163;SDS011;74288;46.872;7.802;2024-02-26T02:03:38;3.97;;;1.60;;
84163;SDS011;74288;46.872;7.802;2024-02-26T02:06:06;3.92;;;1.50;;
84163;SDS011;74288;46.872;7.802;2024-02-26T02:08:33;4.50;;;1.70;;
84163;SDS011;74288;46.872;7.802;2024-02-26T02:11:00;4.38;;;1.60;;
84163;SDS011;74288;46.872;7.802;2024-02-26T02:13:26;5.95;;;1.30;;
84163;SDS011;74288;46.872;7.802;2024-02-26T02:15:52;4.18;;;1.45;;
84163;SDS011;74288;46.872;7.802;2024-02-26T02:18:18;3.57;;;1.60;;
84163;SDS011;74288;46.872;7.802;2024-02-26T02:20:44;2.83;;;1.23;;
84163;SDS011;74288;46.872;7.802;2024-02-26T02:23:10;4.65;;;1.60;;
84163;SDS011;74288;46.872;7.802;2024-02-26T02:25:36;3.67;;;1.13;;
84163;SDS011;74288;46.872;7.802;2024-02-26T02:28:02;3.40;;;1.17;;
84163;SDS011;74288;46.872;7.802;2024-02-26T02:30:29;3.27;;;1.20;;
84163;SDS011;74288;46.872;7.802;2024-02-26T02:32:55;4.78;;;1.50;;
84163;SDS011;74288;46.872;7.802;2024-02-26T02:35:23;3.45;;;1.30;;
84163;SDS011;74288;46.872;7.802;2024-02-26T02:37:50;3.90;;;1.33;;
84163;SDS011;74288;46.872;7.802;2024-02-26T02:40:16;5.00;;;1.40;;
84163;SDS011;74288;46.872;7.802;2024-02-26T02:42:42;2.25;;;1.02;;
84163;SDS011;74288;46.872;7.802;2024-02-26T02:45:08;3.80;;;1.40;;
84163;SDS011;74288;46.872;7.802;2024-02-26T02:47:37;4.15;;;1.40;;
84163;SDS011;74288;46.872;7.802;2024-02-26T02:50:03;3.27;;;1.50;;
84163;SDS011;74288;46.872;7.802;2024-02-26T02:52:29;5.63;;;2.15;;
84163;SDS011;74288;46.872;7.802;2024-02-26T02:54:56;4.18;;;1.50;;
84163;SDS011;74288;46.872;7.802;2024-02-26T02:57:21;4.65;;;1.50;;
84163;SDS011;74288;46.872;7.802;2024-02-26T02:59:48;5.82;;;1.58;;
84163;SDS011;74288;46.872;7.802;2024-02-26T03:02:13;5.33;;;1.70;;
84163;SDS011;74288;46.872;7.802;2024-02-26T03:04:39;4.78;;;1.60;;
84163;SDS011;74288;46.872;7.802;2024-02-26T03:07:05;3.88;;;1.42;;
84163;SDS011;74288;46.872;7.802;2024-02-26T03:09:31;4.90;;;1.70;;
84163;SDS011;74288;46.872;7.802;2024-02-26T03:11:57;3.78;;;1.50;;
84163;SDS011;74288;46.872;7.802;2024-02-26T03:14:23;4.03;;;1.50;;
84163;SDS011;74288;46.872;7.802;2024-02-26T03:16:52;3.25;;;1.20;;
84163;SDS011;74288;46.872;7.802;2024-02-26T03:19:19;3.85;;;1.30;;
84163;SDS011;74288;46.872;7.802;2024-02-26T03:21:45;4.80;;;1.40;;
84163;SDS011;74288;46.872;7.802;2024-02-26T03:24:11;3.65;;;1.20;;
84163;SDS011;74288;46.872;7.802;2024-02-26T03:26:37;5.22;;;1.70;;
84163;SDS011;74288;46.872;7.802;2024-02-26T03:29:04;5.43;;;1.50;;
84163;SDS011;74288;46.872;7.802;2024-02-26T03:31:30;3.17;;;1.20;;
84163;SDS011;74288;46.872;7.802;2024-02-26T03:33:56;6.43;;;1.75;;
84163;SDS011;74288;46.872;7.802;2024-02-26T03:36:22;5.32;;;1.70;;
84163;SDS011;74288;46.872;7.802;2024-02-26T03:38:48;4.53;;;1.60;;
84163;SDS011;74288;46.872;7.802;2024-02-26T03:41:14;4.63;;;1.50;;
84163;SDS011;74288;46.872;7.802;2024-02-26T03:43:40;6.18;;;1.50;;
84163;SDS011;74288;46.872;7.802;2024-02-26T03:46:09;4.43;;;1.60;;
84163;SDS011;74288;46.872;7.802;2024-02-26T03:48:39;5.97;;;1.50;;
84163;SDS011;74288;46.872;7.802;2024-02-26T03:51:05;4.10;;;1.50;;
84163;SDS011;74288;46.872;7.802;2024-02-26T03:53:31;4.95;;;1.50;;
84163;SDS011;74288;46.872;7.802;2024-02-26T03:55:57;4.05;;;1.60;;
84163;SDS011;74288;46.872;7.802;2024-02-26T03:58:23;4.75;;;1.52;;
84163;SDS011;74288;46.872;7.802;2024-02-26T04:00:49;4.18;;;1.25;;
84163;SDS011;74288;46.872;7.802;2024-02-26T04:03:15;7.18;;;2.67;;
84163;SDS011;74288;46.872;7.802;2024-02-26T04:05:40;7.63;;;3.00;;
84163;SDS011;74288;46.872;7.802;2024-02-26T04:08:06;6.17;;;2.57;;
84163;SDS011;74288;46.872;7.802;2024-02-26T04:10:33;3.47;;;1.30;;
84163;SDS011;74288;46.872;7.802;2024-02-26T04:13:07;4.32;;;1.23;;
84163;SDS011;74288;46.872;7.802;2024-02-26T04:15:33;5.57;;;1.85;;
84163;SDS011;74288;46.872;7.802;2024-02-26T04:17:59;4.03;;;1.60;;
84163;SDS011;74288;46.872;7.802;2024-02-26T04:20:25;3.40;;;1.20;;
84163;SDS011;74288;46.872;7.802;2024-02-26T04:22:51;3.88;;;1.65;;
84163;SDS011;74288;46.872;7.802;2024-02-26T04:25:17;6.15;;;1.83;;
84163;SDS011;74288;46.872;7.802;2024-02-26T04:27:43;6.13;;;1.70;;
84163;SDS011;74288;46.872;7.802;2024-02-26T04:30:09;5.35;;;1.40;;
84163;SDS011;74288;46.872;7.802;2024-02-26T04:32:35;3.50;;;1.40;;
84163;SDS011;74288;46.872;7.802;2024-02-26T04:35:02;3.75;;;1.27;;
84163;SDS011;74288;46.872;7.802;2024-02-26T04:37:28;3.30;;;1.33;;
84163;SDS011;74288;46.872;7.802;2024-02-26T04:39:57;3.92;;;1.42;;
84163;SDS011;74288;46.872;7.802;2024-02-26T04:42:23;4.53;;;1.40;;
84163;SDS011;74288;46.872;7.802;2024-02-26T04:44:49;4.40;;;1.40;;
84163;SDS011;74288;46.872;7.802;2024-02-26T04:47:15;5.90;;;1.52;;
84163;SDS011;74288;46.872;7.802;2024-02-26T04:49:41;4.53;;;1.38;;
84163;SDS011;74288;46.872;7.802;2024-02-26T04:52:07;4.07;;;1.50;;
84163;SDS011;74288;46.872;7.802;2024-02-26T04:54:33;3.75;;;1.35;;
84163;SDS011;74288;46.872;7.802;2024-02-26T04:56:59;5.80;;;1.87;;
84163;SDS011;74288;46.872;7.802;2024-02-26T04:59:25;7.18;;;1.90;;
84163;SDS011;74288;46.872;7.802;2024-02-26T05:01:50;4.35;;;1.60;;
84163;SDS011;74288;46.872;7.802;2024-02-26T05:04:17;3.92;;;1.58;;
84163;SDS011;74288;46.872;7.802;2024-02-26T05:06:44;6.30;;;2.10;;
84163;SDS011;74288;46.872;7.802;2024-02-26T05:09:10;4.32;;;1.63;;
84163;SDS011;74288;46.872;7.802;2024-02-26T05:11:36;7.07;;;1.60;;
84163;SDS011;74288;46.872;7.802;2024-02-26T05:14:02;5.28;;;1.70;;
84163;SDS011;74288;46.872;7.802;2024-02-26T05:16:28;6.97;;;1.90;;
84163;SDS011;74288;46.872;7.802;2024-02-26T05:18:56;6.75;;;1.90;;
84163;SDS011;74288;46.872;7.802;2024-02-26T05:21:22;6.30;;;2.28;;
84163;SDS011;74288;46.872;7.802;2024-02-26T05:23:47;7.53;;;1.90;;
84163;SDS011;74288;46.872;7.802;2024-02-26T05:26:23;7.55;;;2.40;;
84163;SDS011;74288;46.872;7.802;2024-02-26T05:28:49;4.87;;;1.70;;
84163;SDS011;74288;46.872;7.802;2024-02-26T05:31:15;4.82;;;1.70;;
84163;SDS011;74288;46.872;7.802;2024-02-26T05:33:41;4.35;;;1.70;;
84163;SDS011;74288;46.872;7.802;2024-02-26T05:36:07;4.60;;;1.92;;
84163;SDS011;74288;46.872;7.802;2024-02-26T05:38:33;7.60;;;2.20;;
84163;SDS011;74288;46.872;7.802;2024-02-26T05:40:59;6.07;;;2.37;;
84163;SDS011;74288;46.872;7.802;2024-02-26T05:43:26;5.68;;;2.33;;
84163;SDS011;74288;46.872;7.802;2024-02-26T05:45:52;5.13;;;2.13;;
84163;SDS011;74288;46.872;7.802;2024-02-26T05:48:18;7.38;;;2.40;;
84163;SDS011;74288;46.872;7.802;2024-02-26T05:50:44;10.17;;;3.43;;
84163;SDS011;74288;46.872;7.802;2024-02-26T05:53:10;8.13;;;3.30;;
84163;SDS011;74288;46.872;7.802;2024-02-26T05:55:36;5.88;;;2.35;;
84163;SDS011;74288;46.872;7.802;2024-02-26T05:58:02;6.65;;;2.55;;
84163;SDS011;74288;46.872;7.802;2024-02-26T06:00:28;9.07;;;3.47;;
84163;SDS011;74288;46.872;7.802;2024-02-26T06:02:54;8.77;;;3.75;;
84163;SDS011;74288;46.872;7.802;2024-02-26T06:05:20;8.07;;;3.50;;
84163;SDS011;74288;46.872;7.802;2024-02-26T06:07:46;7.20;;;3.00;;
84163;SDS011;74288;46.872;7.802;2024-02-26T06:10:12;7.72;;;2.83;;
84163;SDS011;74288;46.872;7.802;2024-02-26T06:12:38;8.05;;;2.40;;
84163;SDS011;74288;46.872;7.802;2024-02-26T06:15:05;7.60;;;2.97;;
84163;SDS011;74288;46.872;7.802;2024-02-26T06:17:31;6.97;;;2.70;;
84163;SDS011;74288;46.872;7.802;2024-02-26T06:19:57;11.10;;;3.10;;
84163;SDS011;74288;46.872;7.802;2024-02-26T06:22:24;5.90;;;1.93;;
84163;SDS011;74288;46.872;7.802;2024-02-26T06:24:50;7.47;;;2.50;;
84163;SDS011;74288;46.872;7.802;2024-02-26T06:27:16;10.35;;;2.90;;
84163;SDS011;74288;46.872;7.802;2024-02-26T06:29:42;8.25;;;3.00;;
84163;SDS011;74288;46.872;7.802;2024-02-26T06:32:08;10.03;;;3.70;;
84163;SDS011;74288;46.872;7.802;2024-02-26T06:34:34;8.43;;;3.40;;
84163;SDS011;74288;46.872;7.802;2024-02-26T06:37:00;10.57;;;3.33;;
84163;SDS011;74288;46.872;7.802;2024-02-26T06:39:26;8.88;;;3.17;;
84163;SDS011;74288;46.872;7.802;2024-02-26T06:41:52;9.10;;;3.28;;
84163;SDS011;74288;46.872;7.802;2024-02-26T06:44:25;6.38;;;3.13;;
84163;SDS011;74288;46.872;7.802;2024-02-26T06:46:51;9.30;;;3.30;;
84163;SDS011;74288;46.872;7.802;2024-02-26T06:49:17;8.90;;;3.35;;
84163;SDS011;74288;46.872;7.802;2024-02-26T06:51:43;7.85;;;3.50;;
84163;SDS011;74288;46.872;7.802;2024-02-26T06:54:09;9.73;;;3.75;;
84163;SDS011;74288;46.872;7.802;2024-02-26T06:56:35;8.27;;;3.40;;
84163;SDS011;74288;46.872;7.802;2024-02-26T06:59:01;7.93;;;3.63;;
84163;SDS011;74288;46.872;7.802;2024-02-26T07:01:27;11.13;;;4.30;;
84163;SDS011;74288;46.872;7.802;2024-02-26T07:03:53;11.45;;;3.30;;
84163;SDS011;74288;46.872;7.802;2024-02-26T07:06:18;8.07;;;3.60;;
84163;SDS011;74288;46.872;7.802;2024-02-26T07:08:44;13.07;;;3.53;;
84163;SDS011;74288;46.872;7.802;2024-02-26T07:11:10;10.67;;;3.30;;
84163;SDS011;74288;46.872;7.802;2024-02-26T07:13:36;11.68;;;3.40;;
84163;SDS011;74288;46.872;7.802;2024-02-26T07:16:03;10.75;;;3.00;;
84163;SDS011;74288;46.872;7.802;2024-02-26T07:18:29;13.63;;;3.47;;
84163;SDS011;74288;46.872;7.802;2024-02-26T07:20:55;11.80;;;3.50;;
84163;SDS011;74288;46.872;7.802;2024-02-26T07:23:21;9.23;;;3.40;;
84163;SDS011;74288;46.872;7.802;2024-02-26T07:25:47;8.02;;;3.00;;
84163;SDS011;74288;46.872;7.802;2024-02-26T07:28:14;6.53;;;2.47;;
84163;SDS011;74288;46.872;7.802;2024-02-26T07:30:40;6.10;;;2.57;;
84163;SDS011;74288;46.872;7.802;2024-02-26T07:33:06;6.03;;;2.30;;
84163;SDS011;74288;46.872;7.802;2024-02-26T07:35:32;5.68;;;2.20;;
84163;SDS011;74288;46.872;7.802;2024-02-26T07:37:58;5.50;;;2.30;;
84163;SDS011;74288;46.872;7.802;2024-02-26T07:40:24;8.05;;;2.40;;
84163;SDS011;74288;46.872;7.802;2024-02-26T07:42:50;6.65;;;2.65;;
84163;SDS011;74288;46.872;7.802;2024-02-26T07:45:16;8.25;;;2.60;;
84163;SDS011;74288;46.872;7.802;2024-02-26T07:47:44;6.60;;;2.83;;
84163;SDS011;74288;46.872;7.802;2024-02-26T07:50:10;6.55;;;2.80;;
84163;SDS011;74288;46.872;7.802;2024-02-26T07:52:37;6.22;;;2.88;;
84163;SDS011;74288;46.872;7.802;2024-02-26T07:55:03;5.45;;;2.20;;
84163;SDS011;74288;46.872;7.802;2024-02-26T07:57:30;5.90;;;2.10;;
84163;SDS011;74288;46.872;7.802;2024-02-26T07:59:56;5.90;;;2.00;;
84163;SDS011;74288;46.872;7.802;2024-02-26T08:02:22;5.20;;;2.03;;
84163;SDS011;74288;46.872;7.802;2024-02-26T08:04:48;5.78;;;2.17;;
84163;SDS011;74288;46.872;7.802;2024-02-26T08:07:13;5.97;;;2.30;;
84163;SDS011;74288;46.872;7.802;2024-02-26T08:09:39;5.27;;;1.93;;
84163;SDS011;74288;46.872;7.802;2024-02-26T08:12:05;5.90;;;2.13;;
84163;SDS011;74288;46.872;7.802;2024-02-26T08:14:32;6.97;;;2.13;;
84163;SDS011;74288;46.872;7.802;2024-02-26T08:16:58;5.03;;;2.03;;
84163;SDS011;74288;46.872;7.802;2024-02-26T08:19:24;6.13;;;2.30;;
84163;SDS011;74288;46.872;7.802;2024-02-26T08:21:50;6.78;;;2.28;;
84163;SDS011;74288;46.872;7.802;2024-02-26T08:24:16;8.43;;;2.53;;
84163;SDS011;74288;46.872;7.802;2024-02-26T08:26:42;8.25;;;2.78;;
84163;SDS011;74288;46.872;7.802;2024-02-26T08:29:08;6.30;;;2.38;;
84163;SDS011;74288;46.872;7.802;2024-02-26T08:31:34;5.18;;;2.25;;
84163;SDS011;74288;46.872;7.802;2024-02-26T08:34:02;6.75;;;2.50;;
84163;SDS011;74288;46.872;7.802;2024-02-26T08:36:28;6.38;;;2.60;;
84163;SDS011;74288;46.872;7.802;2024-02-26T08:38:54;7.53;;;2.63;;
84163;SDS011;74288;46.872;7.802;2024-02-26T08:41:20;6.20;;;2.57;;
84163;SDS011;74288;46.872;7.802;2024-02-26T08:43:46;6.07;;;2.42;;
84163;SDS011;74288;46.872;7.802;2024-02-26T08:46:12;5.78;;;2.63;;
84163;SDS011;74288;46.872;7.802;2024-02-26T08:48:39;6.00;;;2.57;;
84163;SDS011;74288;46.872;7.802;2024-02-26T08:51:08;6.35;;;2.53;;
84163;SDS011;74288;46.872;7.802;2024-02-26T08:53:34;5.75;;;2.50;;
84163;SDS011;74288;46.872;7.802;2024-02-26T08:56:00;5.80;;;2.70;;
84163;SDS011;74288;46.872;7.802;2024-02-26T08:58:29;6.70;;;2.70;;
84163;SDS011;74288;46.872;7.802;2024-02-26T09:00:55;5.43;;;2.43;;
84163;SDS011;74288;46.872;7.802;2024-02-26T09:03:21;5.97;;;2.63;;
84163;SDS011;74288;46.872;7.802;2024-02-26T09:05:47;6.05;;;2.60;;
84163;SDS011;74288;46.872;7.802;2024-02-26T09:08:13;5.00;;;2.20;;
84163;SDS011;74288;46.872;7.802;2024-02-26T09:10:39;5.47;;;2.47;;
84163;SDS011;74288;46.872;7.802;2024-02-26T09:13:05;5.95;;;2.53;;
84163;SDS011;74288;46.872;7.802;2024-02-26T09:15:31;7.25;;;2.63;;
84163;SDS011;74288;46.872;7.802;2024-02-26T09:17:57;6.25;;;2.70;;
84163;SDS011;74288;46.872;7.802;2024-02-26T09:20:23;7.18;;;2.70;;
84163;SDS011;74288;46.872;7.802;2024-02-26T09:22:50;6.20;;;2.30;;
84163;SDS011;74288;46.872;7.802;2024-02-26T09:25:16;5.28;;;2.22;;
84163;SDS011;74288;46.872;7.802;2024-02-26T09:27:43;4.45;;;2.00;;
84163;SDS011;74288;46.872;7.802;2024-02-26T09:30:09;6.07;;;2.10;;
84163;SDS011;74288;46.872;7.802;2024-02-26T09:32:35;5.97;;;2.33;;
84163;SDS011;74288;46.872;7.802;2024-02-26T09:35:01;7.10;;;2.60;;
84163;SDS011;74288;46.872;7.802;2024-02-26T09:37:28;5.00;;;2.20;;
84163;SDS011;74288;46.872;7.802;2024-02-26T09:39:54;5.47;;;2.25;;
84163;SDS011;74288;46.872;7.802;2024-02-26T09:42:20;5.70;;;2.63;;
84163;SDS011;74288;46.872;7.802;2024-02-26T09:44:46;5.93;;;2.60;;
84163;SDS011;74288;46.872;7.802;2024-02-26T09:47:16;7.07;;;2.55;;
84163;SDS011;74288;46.872;7.802;2024-02-26T09:49:42;7.53;;;2.70;;
84163;SDS011;74288;46.872;7.802;2024-02-26T09:52:08;7.18;;;2.13;;
84163;SDS011;74288;46.872;7.802;2024-02-26T09:54:34;6.15;;;2.20;;
84163;SDS011;74288;46.872;7.802;2024-02-26T09:57:02;5.75;;;2.50;;
84163;SDS011;74288;46.872;7.802;2024-02-26T09:59:29;7.32;;;2.30;;
84163;SDS011;74288;46.872;7.802;2024-02-26T10:01:55;5.72;;;2.30;;
84163;SDS011;74288;46.872;7.802;2024-02-26T10:04:22;6.70;;;2.70;;
84163;SDS011;74288;46.872;7.802;2024-02-26T10:06:50;6.43;;;2.77;;
84163;SDS011;74288;46.872;7.802;2024-02-26T10:09:17;6.70;;;2.55;;
84163;SDS011;74288;46.872;7.802;2024-02-26T10:11:43;7.97;;;2.80;;
84163;SDS011;74288;46.872;7.802;2024-02-26T10:14:09;6.20;;;2.60;;
84163;SDS011;74288;46.872;7.802;2024-02-26T10:16:36;6.70;;;3.20;;
84163;SDS011;74288;46.872;7.802;2024-02-26T10:19:02;20.60;;;6.63;;
84163;SDS011;74288;46.872;7.802;2024-02-26T10:21:28;12.88;;;5.70;;
84163;SDS011;74288;46.872;7.802;2024-02-26T10:23:54;13.90;;;5.20;;
84163;SDS011;74288;46.872;7.802;2024-02-26T10:26:20;10.05;;;4.28;;
84163;SDS011;74288;46.872;7.802;2024-02-26T10:28:47;10.20;;;4.50;;
84163;SDS011;74288;46.872;7.802;2024-02-26T10:31:13;10.85;;;4.93;;
84163;SDS011;74288;46.872;7.802;2024-02-26T10:33:40;11.73;;;4.55;;
84163;SDS011;74288;46.872;7.802;2024-02-26T10:36:07;7.85;;;3.33;;
84163;SDS011;74288;46.872;7.802;2024-02-26T10:38:34;8.02;;;3.25;;
84163;SDS011;74288;46.872;7.802;2024-02-26T10:41:06;6.90;;;2.83;;
84163;SDS011;74288;46.872;7.802;2024-02-26T10:43:33;6.38;;;2.90;;
84163;SDS011;74288;46.872;7.802;2024-02-26T10:45:59;6.75;;;2.70;;
84163;SDS011;74288;46.872;7.802;2024-02-26T10:48:25;5.82;;;2.63;;
84163;SDS011;74288;46.872;7.802;2024-02-26T10:50:51;7.50;;;3.10;;
84163;SDS011;74288;46.872;7.802;2024-02-26T10:53:19;7.60;;;3.20;;
84163;SDS011;74288;46.872;7.802;2024-02-26T10:55:52;9.73;;;4.10;;
84163;SDS011;74288;46.872;7.802;2024-02-26T10:58:21;10.10;;;4.63;;
84163;SDS011;74288;46.872;7.802;2024-02-26T11:00:47;9.10;;;3.70;;
84163;SDS011;74288;46.872;7.802;2024-02-26T11:03:14;7.00;;;2.73;;
84163;SDS011;74288;46.872;7.802;2024-02-26T11:05:46;7.93;;;2.70;;
84163;SDS011;74288;46.872;7.802;2024-02-26T11:08:12;5.60;;;2.20;;
84163;SDS011;74288;46.872;7.802;2024-02-26T11:10:38;8.18;;;2.25;;
84163;SDS011;74288;46.872;7.802;2024-02-26T11:13:05;9.85;;;2.63;;
84163;SDS011;74288;46.872;7.802;2024-02-26T11:15:32;4.77;;;2.10;;
84163;SDS011;74288;46.872;7.802;2024-02-26T11:17:58;5.60;;;2.60;;
84163;SDS011;74288;46.872;7.802;2024-02-26T11:20:25;7.95;;;2.70;;
84163;SDS011;74288;46.872;7.802;2024-02-26T11:22:54;7.22;;;2.85;;
84163;SDS011;74288;46.872;7.802;2024-02-26T11:25:20;4.93;;;2.33;;
84163;SDS011;74288;46.872;7.802;2024-02-26T11:27:48;5.80;;;2.53;;
84163;SDS011;74288;46.872;7.802;2024-02-26T11:30:15;6.25;;;2.50;;
84163;SDS011;74288;46.872;7.802;2024-02-26T11:32:44;8.15;;;2.70;;
84163;SDS011;74288;46.872;7.802;2024-02-26T11:35:11;4.97;;;2.30;;
84163;SDS011;74288;46.872;7.802;2024-02-26T11:37:40;7.43;;;2.85;;
84163;SDS011;74288;46.872;7.802;2024-02-26T11:40:10;7.20;;;2.43;;
84163;SDS011;74288;46.872;7.802;2024-02-26T11:42:43;6.25;;;2.60;;
84163;SDS011;74288;46.872;7.802;2024-02-26T11:47:57;4.80;;;2.10;;
84163;SDS011;74288;46.872;7.802;2024-02-26T11:50:35;7.95;;;2.47;;
84163;SDS011;74288;46.872;7.802;2024-02-26T11:55:45;5.32;;;2.30;;
84163;SDS011;74288;46.872;7.802;2024-02-26T11:58:11;5.32;;;2.25;;
84163;SDS011;74288;46.872;7.802;2024-02-26T12:00:39;5.38;;;2.08;;
84163;SDS011;74288;46.872;7.802;2024-02-26T12:03:06;5.80;;;2.33;;
84163;SDS011;74288;46.872;7.802;2024-02-26T12:05:33;5.95;;;2.40;;
84163;SDS011;74288;46.872;7.802;2024-02-26T12:10:31;7.25;;;2.25;;
84163;SDS011;74288;46.872;7.802;2024-02-26T12:13:07;6.78;;;2.50;;
84163;SDS011;74288;46.872;7.802;2024-02-26T12:15:37;5.87;;;2.53;;
84163;SDS011;74288;46.872;7.802;2024-02-26T12:18:04;5.30;;;2.28;;
84163;SDS011;74288;46.872;7.802;2024-02-26T12:20:31;5.13;;;2.15;;
84163;SDS011;74288;46.872;7.802;2024-02-26T12:22:57;5.70;;;2.40;;
84163;SDS011;74288;46.872;7.802;2024-02-26T12:25:26;5.22;;;2.20;;
84163;SDS011;74288;46.872;7.802;2024-02-26T12:27:55;6.23;;;2.43;;
84163;SDS011;74288;46.872;7.802;2024-02-26T12:30:22;6.55;;;2.30;;
84163;SDS011;74288;46.872;7.802;2024-02-26T12:32:52;6.45;;;2.50;;
84163;SDS011;74288;46.872;7.802;2024-02-26T12:35:22;6.25;;;2.20;;
84163;SDS011;74288;46.872;7.802;2024-02-26T12:37:48;5.30;;;2.30;;
84163;SDS011;74288;46.872;7.802;2024-02-26T12:40:14;5.53;;;2.40;;
84163;SDS011;74288;46.872;7.802;2024-02-26T12:42:40;5.45;;;2.33;;
84163;SDS011;74288;46.872;7.802;2024-02-26T12:45:06;6.50;;;2.40;;
84163;SDS011;74288;46.872;7.802;2024-02-26T12:47:38;7.10;;;2.63;;
84163;SDS011;74288;46.872;7.802;2024-02-26T12:50:04;7.50;;;2.40;;
84163;SDS011;74288;46.872;7.802;2024-02-26T12:52:31;5.53;;;2.50;;
84163;SDS011;74288;46.872;7.802;2024-02-26T12:54:57;6.25;;;2.30;;
84163;SDS011;74288;46.872;7.802;2024-02-26T12:57:23;4.90;;;2.05;;
84163;SDS011;74288;46.872;7.802;2024-02-26T12:59:50;6.03;;;2.20;;
84163;SDS011;74288;46.872;7.802;2024-02-26T13:02:16;5.40;;;2.08;;
84163;SDS011;74288;46.872;7.802;2024-02-26T13:04:42;5.10;;;2.07;;
84163;SDS011;74288;46.872;7.802;2024-02-26T13:07:09;5.20;;;2.30;;
84163;SDS011;74288;46.872;7.802;2024-02-26T13:09:35;5.32;;;2.38;;
84163;SDS011;74288;46.872;7.802;2024-02-26T13:12:03;4.93;;;1.77;;
84163;SDS011;74288;46.872;7.802;2024-02-26T13:14:30;6.07;;;2.40;;
84163;SDS011;74288;46.872;7.802;2024-02-26T13:16:59;5.30;;;2.20;;
84163;SDS011;74288;46.872;7.802;2024-02-26T13:19:26;5.55;;;2.20;;
84163;SDS011;74288;46.872;7.802;2024-02-26T13:21:52;7.03;;;2.22;;
84163;SDS011;74288;46.872;7.802;2024-02-26T13:24:21;4.80;;;2.20;;
84163;SDS011;74288;46.872;7.802;2024-02-26T13:26:55;5.07;;;2.17;;
84163;SDS011;74288;46.872;7.802;2024-02-26T13:29:21;5.75;;;2.20;;
84163;SDS011;74288;46.872;7.802;2024-02-26T13:31:53;6.07;;;2.22;;
84163;SDS011;74288;46.872;7.802;2024-02-26T13:34:25;6.35;;;2.40;;
84163;SDS011;74288;46.872;7.802;2024-02-26T13:36:52;5.25;;;2.05;;
84163;SDS011;74288;46.872;7.802;2024-02-26T13:39:25;5.63;;;2.30;;
84163;SDS011;74288;46.872;7.802;2024-02-26T13:41:51;6.38;;;2.42;;
84163;SDS011;74288;46.872;7.802;2024-02-26T13:44:19;4.88;;;2.30;;
84163;SDS011;74288;46.872;7.802;2024-02-26T13:46:45;6.00;;;2.38;;
84163;SDS011;74288;46.872;7.802;2024-02-26T13:49:11;8.23;;;2.60;;
84163;SDS011;74288;46.872;7.802;2024-02-26T13:51:37;5.80;;;2.47;;
84163;SDS011;74288;46.872;7.802;2024-02-26T13:54:03;6.25;;;2.42;;
84163;SDS011;74288;46.872;7.802;2024-02-26T13:56:29;6.32;;;2.55;;
84163;SDS011;74288;46.872;7.802;2024-02-26T13:58:56;6.45;;;2.58;;
84163;SDS011;74288;46.872;7.802;2024-02-26T14:01:21;6.20;;;2.65;;
84163;SDS011;74288;46.872;7.802;2024-02-26T14:03:47;7.50;;;3.10;;
84163;SDS011;74288;46.872;7.802;2024-02-26T14:06:13;5.88;;;2.55;;
84163;SDS011;74288;46.872;7.802;2024-02-26T14:08:39;5.30;;;2.20;;
84163;SDS011;74288;46.872;7.802;2024-02-26T14:11:06;5.10;;;2.30;;
84163;SDS011;74288;46.872;7.802;2024-02-26T14:13:32;5.53;;;2.42;;
84163;SDS011;74288;46.872;7.802;2024-02-26T14:15:57;5.15;;;2.28;;
84163;SDS011;74288;46.872;7.802;2024-02-26T14:18:23;8.32;;;2.25;;
84163;SDS011;74288;46.872;7.802;2024-02-26T14:20:50;6.40;;;2.43;;
84163;SDS011;74288;46.872;7.802;2024-02-26T14:23:16;6.80;;;2.17;;
84163;SDS011;74288;46.872;7.802;2024-02-26T14:25:42;5.63;;;2.25;;
84163;SDS011;74288;46.872;7.802;2024-02-26T14:28:08;7.97;;;3.00;;
84163;SDS011;74288;46.872;7.802;2024-02-26T14:30:34;5.55;;;2.80;;
84163;SDS011;74288;46.872;7.802;2024-02-26T14:33:00;5.55;;;2.40;;
84163;SDS011;74288;46.872;7.802;2024-02-26T14:35:26;6.60;;;3.08;;
84163;SDS011;74288;46.872;7.802;2024-02-26T14:37:52;8.93;;;4.10;;
84163;SDS011;74288;46.872;7.802;2024-02-26T14:40:19;10.07;;;4.30;;
84163;SDS011;74288;46.872;7.802;2024-02-26T14:42:45;11.13;;;4.65;;
84163;SDS011;74288;46.872;7.802;2024-02-26T14:45:11;8.45;;;3.80;;
84163;SDS011;74288;46.872;7.802;2024-02-26T14:47:37;11.48;;;5.88;;
84163;SDS011;74288;46.872;7.802;2024-02-26T14:50:04;12.82;;;6.70;;